Terminal Aerodrome Forecast
Issued by NWS

Home | Current Version | Previous Version | Text Only | Print | Product List | Glossary On
Versions: 1 2 3 4 5 6 7 8 9 10 11 12 13 14 15 16 17 18 19 20 21 22 23 24
000
FTUS43 KSGF 250525
TAFJLN
TAF
KJLN 250525Z 2506/2606 16008KT P6SM SCT250
     FM250800 16009KT P6SM SCT250 WS020/19040KT
     FM251300 17018G28KT P6SM BKN250
     FM260400 18010G18KT P6SM VCTS SCT040CB BKN080=

USA.gov is the U.S. government's official web portal to all federal, state and local government web resources and services.